createdAt,value
2023-01-06T08:47:29.601Z,99.90
2023-01-06T09:04:49.980Z,99.90
2023-01-06T09:20:18.191Z,99.90
2023-01-06T09:25:11.656Z,99.90
2023-01-06T09:30:05.928Z,99.90
2023-01-06T09:43:12.876Z,99.90
2023-01-06T09:48:10.542Z,99.90
2023-01-06T10:00:21.785Z,99.90
2023-01-06T10:12:03.696Z,99.90
2023-01-06T10:17:20.076Z,99.90
2023-01-06T10:22:21.120Z,99.90
2023-01-06T10:27:29.163Z,99.90
2023-01-06T10:32:23.903Z,99.90
2023-01-06T10:37:23.805Z,99.90
2023-01-06T10:42:47.497Z,99.90
2023-01-06T10:47:43.836Z,99.90
2023-01-06T10:52:37.912Z,99.90
2023-01-06T10:57:39.714Z,99.90
2023-01-06T11:02:33.921Z,99.90
2023-01-06T11:07:27.882Z,99.90
2023-01-06T11:12:24.162Z,99.90
2023-01-06T11:17:23.374Z,99.90
2023-01-06T11:22:35.401Z,99.90
2023-01-06T11:27:29.449Z,99.90
2023-01-06T11:32:28.172Z,99.90
2023-01-06T11:37:32.500Z,99.90
2023-01-06T11:42:26.914Z,99.90
2023-01-06T11:47:26.073Z,99.90
2023-01-06T11:52:25.275Z,99.90
2023-01-06T11:57:27.171Z,99.90
2023-01-06T12:02:27.380Z,99.90
2023-01-06T12:07:27.211Z,99.90
2023-01-06T12:12:23.433Z,99.90
2023-01-06T12:17:23.102Z,99.90
2023-01-06T12:22:26.170Z,99.10
2023-01-06T12:27:29.762Z,98.50
2023-01-06T12:32:29.364Z,97.80
2023-01-06T12:37:28.796Z,97.10
2023-01-06T12:42:28.961Z,96.80
2023-01-06T12:47:27.900Z,96.40
2023-01-06T12:52:26.685Z,96.00
2023-01-06T12:57:42.202Z,96.40
2023-01-06T13:02:53.494Z,96.10
2023-01-06T13:07:58.624Z,96.00
2023-01-06T13:12:59.737Z,95.80
2023-01-06T13:18:05.813Z,95.20
2023-01-06T13:23:16.691Z,95.20
2023-01-06T13:28:21.789Z,95.00
2023-01-06T13:33:39.299Z,94.90
2023-01-06T13:38:51.831Z,93.80
2023-01-06T13:43:48.040Z,94.10
2023-01-06T13:48:44.650Z,94.70
2023-01-06T13:53:42.195Z,95.80
2023-01-06T13:58:38.255Z,95.90
2023-01-06T14:03:32.149Z,95.30
2023-01-06T14:08:30.492Z,96.90
2023-01-06T14:13:28.169Z,98.90
2023-01-06T14:18:34.979Z,99.90
2023-01-06T14:23:29.523Z,99.90
2023-01-06T14:28:32.909Z,99.90
2023-01-06T14:33:36.673Z,99.90
2023-01-06T14:38:35.336Z,99.90
2023-01-06T14:43:35.418Z,99.90
2023-01-06T14:48:30.280Z,99.90
2023-01-06T14:53:29.032Z,99.90
2023-01-06T14:58:32.139Z,99.90
2023-01-06T15:03:27.859Z,99.90
2023-01-06T15:08:21.531Z,99.90
2023-01-06T15:13:23.473Z,99.90
2023-01-06T15:18:18.569Z,99.90
2023-01-06T15:23:16.980Z,99.90
2023-01-06T15:28:26.125Z,99.90
2023-01-06T15:33:22.451Z,99.90
2023-01-06T15:38:26.342Z,99.90
2023-01-06T15:43:21.771Z,99.90
2023-01-06T15:48:22.331Z,99.90
2023-01-06T15:53:22.242Z,99.90
2023-01-06T15:58:24.036Z,99.90
2023-01-06T16:03:22.009Z,99.90
2023-01-06T16:08:20.548Z,99.90
2023-01-06T16:13:28.252Z,99.90
2023-01-06T16:18:31.619Z,99.90
2023-01-06T16:23:34.954Z,99.90
2023-01-06T16:28:28.630Z,99.90
2023-01-06T16:33:39.054Z,99.90
2023-01-06T16:38:32.859Z,99.90
2023-01-06T16:43:28.386Z,99.90
2023-01-06T16:48:22.047Z,99.90
2023-01-06T16:53:20.747Z,99.90
2023-01-06T16:58:18.164Z,99.90
2023-01-06T17:03:15.310Z,99.90
2023-01-06T17:08:14.124Z,99.90
